Duleek, Ireland

4:41 AM IST on July 21, 2017 (GMT +0100)
Duleek | | Change Station

Elev 200 ft 53.65 °N, 6.40 °W | Updated 35 seconds ago

Rain
Rain
52.8 °F
Feels Like 52.8 °F
N
11.0
Wind Variable Wind from ENE
Gusts 19.0 mph

Today
High -- | Low -- °F
--% Chance of Precip.
Yesterday
High -- | Low -- °F
Precip. -- in
Pressure 29.42 in
Visibility 6.2 miles
Clouds Scattered Clouds 700 ft
Mostly Cloudy 2400 ft
Dew Point 51 °F
Humidity 95%
Rainfall 0.14 in
Snow Depth Not available.
5:23 AM 9:39 PM
Waning Crescent, 7% visible
METAR EIDW 210330Z 10016KT 9999 -RA SCT007 BKN024 12/11 Q0996 TEMPO 4000 BKN012
Pressure 29.42 in
Visibility 6.2 miles
Clouds Scattered Clouds 700 ft
Mostly Cloudy 2400 ft
Dew Point 51 °F
Humidity 95%
Rainfall 0.14 in
Snow Depth Not available.
5:23 AM 9:39 PM
Waning Crescent, 7% visible
METAR EIDW 210330Z 10016KT 9999 -RA SCT007 BKN024 12/11 Q0996 TEMPO 4000 BKN012

Get Severe Weather Alerts

Thanks for signing up!

Be on the lookout for a verification email in your inbox.

You'll start receiving the daily forecast at 6 AM.

×

10-Day Weather Forecast

×

Almanac

Astronomy

Jul. 21, 2017 Rise Set
Actual Time
Civil Twilight
Nautical Twilight
Astronomical Twilight
Moon
Length of Visible Light
Length of Day
Tomorrow will be .
, % of the Moon is Illuminated

Today's Extremes

Country Highs Country Lows

Community

WunderPhotos

Category 6

Welcome to Category 6. This is the collective home for Weather Underground's featured writeups by Dr. Jeff Masters (right), Bob Henson (left), Chris Burt, and other regular contributors.

Nearby

Air Quality

  Air Quality AQ Index Pollutant
Not available.

Snow Depth

Station Depth Elevation

Earthquake Activity

City Distance Mag. Time & Date
Minimum magnitude displayed is 2.5.

Coastal Water Temperatures

Place Temperature

Stations

Nearby Weather Stations

Station Location Temp. Windchill Dew Point Humidity Wind Precip. Elev Updated Type